createdAt,value
2022-09-29T00:00:26.922Z,3.20
2022-09-29T00:02:54.732Z,2.30
2022-09-29T00:05:22.960Z,2.37
2022-09-29T00:07:51.954Z,2.03
2022-09-29T00:10:19.669Z,2.30
2022-09-29T00:12:48.458Z,2.33
2022-09-29T00:15:16.099Z,1.90
2022-09-29T00:18:02.727Z,2.33
2022-09-29T00:20:31.419Z,2.17
2022-09-29T00:23:00.602Z,2.30
2022-09-29T00:25:28.461Z,2.23
2022-09-29T00:27:56.012Z,2.40
2022-09-29T00:30:24.163Z,2.10
2022-09-29T00:32:51.735Z,2.07
2022-09-29T00:35:19.498Z,2.10
2022-09-29T00:37:47.196Z,2.20
2022-09-29T00:40:16.156Z,2.37
2022-09-29T00:42:43.731Z,2.00
2022-09-29T00:45:20.101Z,2.23
2022-09-29T00:47:56.877Z,1.80
2022-09-29T00:50:29.284Z,2.70
2022-09-29T00:53:01.763Z,2.10
2022-09-29T00:55:34.777Z,1.87
2022-09-29T00:58:06.806Z,1.90
2022-09-29T01:00:35.072Z,2.00
2022-09-29T01:03:06.707Z,2.10
2022-09-29T01:05:37.605Z,1.90
2022-09-29T01:08:12.987Z,2.10
2022-09-29T01:10:42.705Z,2.27
2022-09-29T01:13:10.457Z,1.97
2022-09-29T01:15:38.089Z,2.17
2022-09-29T01:18:06.741Z,2.20
2022-09-29T01:20:40.202Z,2.43
2022-09-29T01:23:49.797Z,2.07
2022-09-29T01:27:02.762Z,2.00
2022-09-29T01:30:00.559Z,2.10
2022-09-29T01:32:40.020Z,2.33
2022-09-29T01:35:14.030Z,2.20
2022-09-29T01:37:52.359Z,2.30
2022-09-29T01:40:28.120Z,1.90
2022-09-29T01:43:02.515Z,1.80
2022-09-29T01:45:34.120Z,1.83
2022-09-29T01:48:07.195Z,1.97
2022-09-29T01:50:40.221Z,2.00
2022-09-29T01:53:11.942Z,2.10
2022-09-29T01:55:45.755Z,2.10
2022-09-29T01:58:19.525Z,2.07
2022-09-29T02:00:52.628Z,0.60
2022-09-29T02:03:25.640Z,0.30
2022-09-29T02:05:57.546Z,0.00
2022-09-29T02:08:27.558Z,0.10
2022-09-29T02:11:01.626Z,0.87
2022-09-29T02:13:32.667Z,0.30
2022-09-29T02:16:02.342Z,0.23
2022-09-29T02:18:35.851Z,0.30
2022-09-29T02:21:03.694Z,1.77
2022-09-29T02:23:31.347Z,1.53
2022-09-29T02:26:00.477Z,1.70
2022-09-29T02:28:28.783Z,1.63
2022-09-29T02:30:56.696Z,1.87
2022-09-29T02:33:26.993Z,0.40
2022-09-29T02:36:07.738Z,1.80
2022-09-29T02:38:44.827Z,1.30
2022-09-29T02:41:26.433Z,0.03
2022-09-29T02:44:20.153Z,0.60
2022-09-29T02:47:01.433Z,0.20
2022-09-29T02:49:42.139Z,0.30
2022-09-29T02:52:22.226Z,0.50
2022-09-29T02:54:59.710Z,0.60
2022-09-29T02:57:35.304Z,0.70
2022-09-29T03:00:08.931Z,0.63
2022-09-29T03:02:38.037Z,0.53
2022-09-29T03:05:08.165Z,0.77
2022-09-29T03:07:38.180Z,0.40
2022-09-29T03:10:07.682Z,2.43
2022-09-29T03:12:35.745Z,0.40
2022-09-29T03:15:03.837Z,0.33
2022-09-29T03:17:31.583Z,0.30
2022-09-29T03:19:59.202Z,0.00
2022-09-29T03:22:27.284Z,0.40
2022-09-29T03:24:56.146Z,0.27
2022-09-29T03:27:23.749Z,0.40
2022-09-29T03:29:51.365Z,0.73
2022-09-29T03:32:19.033Z,0.10
2022-09-29T03:34:46.665Z,0.40
2022-09-29T03:37:14.270Z,0.20
2022-09-29T03:39:42.081Z,0.00
2022-09-29T03:42:11.004Z,0.00
2022-09-29T03:44:38.601Z,0.23
2022-09-29T03:47:06.272Z,0.30
2022-09-29T03:49:33.833Z,0.60
2022-09-29T03:52:02.092Z,0.47
2022-09-29T03:54:29.657Z,0.00
2022-09-29T03:56:57.234Z,0.67
2022-09-29T03:59:26.242Z,0.20
2022-09-29T04:01:53.809Z,0.40
2022-09-29T04:04:21.373Z,0.57
2022-09-29T04:06:49.212Z,0.00
2022-09-29T04:09:16.763Z,0.00
2022-09-29T04:11:44.453Z,0.00
2022-09-29T04:14:12.299Z,0.00
2022-09-29T04:16:41.517Z,0.00
2022-09-29T04:19:09.138Z,0.40
2022-09-29T04:21:36.678Z,0.33
2022-09-29T04:24:04.324Z,0.30
2022-09-29T04:26:31.879Z,1.50
2022-09-29T04:28:59.437Z,2.03
2022-09-29T04:31:27.152Z,1.50
2022-09-29T04:33:56.060Z,1.80
2022-09-29T04:36:23.837Z,1.90
2022-09-29T04:38:51.631Z,1.70
2022-09-29T04:41:19.213Z,1.90
2022-09-29T04:43:46.776Z,1.97
2022-09-29T04:46:15.427Z,2.85
2022-09-29T04:48:43.132Z,2.27
2022-09-29T04:51:12.174Z,1.80
2022-09-29T04:53:39.797Z,2.27
2022-09-29T04:56:09.002Z,2.03
2022-09-29T04:58:36.808Z,1.80
2022-09-29T05:01:09.027Z,1.70
2022-09-29T05:03:37.025Z,2.00
2022-09-29T05:06:04.794Z,1.90
2022-09-29T05:08:33.758Z,2.27
2022-09-29T05:11:04.520Z,1.60
2022-09-29T05:13:32.058Z,2.10
2022-09-29T05:15:59.732Z,1.93
2022-09-29T05:18:27.697Z,2.37
2022-09-29T05:21:22.901Z,2.10
2022-09-29T05:23:44.386Z,1.90
2022-09-29T05:26:13.651Z,2.07
2022-09-29T05:28:45.694Z,2.10
2022-09-29T05:31:13.767Z,1.87
2022-09-29T05:33:41.673Z,1.97
2022-09-29T05:36:10.985Z,2.40
2022-09-29T05:38:39.679Z,2.20
2022-09-29T05:41:10.194Z,2.37
2022-09-29T05:43:38.035Z,1.80
2022-09-29T05:46:08.412Z,2.03
2022-09-29T05:48:36.360Z,1.83
2022-09-29T05:51:09.581Z,2.10
2022-09-29T05:53:37.588Z,1.90
2022-09-29T05:56:08.509Z,2.10
2022-09-29T05:58:37.578Z,2.00
2022-09-29T06:01:09.090Z,2.30
2022-09-29T06:03:38.104Z,2.00
2022-09-29T06:06:07.369Z,2.30
2022-09-29T06:08:34.916Z,2.00
2022-09-29T06:11:09.154Z,2.10
2022-09-29T06:13:39.090Z,1.80
2022-09-29T06:16:07.477Z,2.17
2022-09-29T06:18:35.197Z,1.87
2022-09-29T06:21:03.804Z,1.60
2022-09-29T06:23:31.346Z,2.30
2022-09-29T06:25:59.854Z,2.70
2022-09-29T06:28:29.056Z,2.00
2022-09-29T06:31:00.539Z,2.03
2022-09-29T06:33:28.600Z,2.40
2022-09-29T06:36:13.861Z,0.00
2022-09-29T06:38:41.946Z,2.60
2022-09-29T06:41:09.781Z,3.80
2022-09-29T06:43:38.664Z,4.20
2022-09-29T06:46:06.776Z,4.63
2022-09-29T06:48:34.342Z,4.47
2022-09-29T06:51:09.325Z,5.10
2022-09-29T06:53:39.006Z,6.10
2022-09-29T06:56:08.890Z,5.07
2022-09-29T06:58:38.919Z,5.33
2022-09-29T07:01:06.942Z,5.40
2022-09-29T07:03:35.954Z,5.73
2022-09-29T07:06:20.511Z,5.83
2022-09-29T07:08:48.586Z,6.23
2022-09-29T07:11:16.605Z,6.13
2022-09-29T07:13:45.501Z,6.20
2022-09-29T07:16:15.329Z,5.73
2022-09-29T07:18:44.698Z,5.80
2022-09-29T07:21:16.652Z,5.27
2022-09-29T07:23:45.284Z,4.40
2022-09-29T07:26:13.631Z,4.17
2022-09-29T07:28:41.401Z,5.17
2022-09-29T07:31:17.854Z,4.90
2022-09-29T07:33:46.881Z,4.70
2022-09-29T07:36:16.177Z,5.47
2022-09-29T07:38:46.842Z,5.00
2022-09-29T07:41:14.418Z,5.03
2022-09-29T07:43:42.138Z,4.60
2022-09-29T07:46:11.510Z,4.53
2022-09-29T07:48:39.881Z,4.37
2022-09-29T07:51:09.023Z,4.23
2022-09-29T07:53:37.469Z,4.33
2022-09-29T07:56:06.024Z,4.53
2022-09-29T07:58:34.265Z,4.50
2022-09-29T08:01:04.252Z,4.10
2022-09-29T08:03:33.951Z,4.90
2022-09-29T08:06:01.544Z,4.80
2022-09-29T08:08:29.151Z,5.80
2022-09-29T08:11:02.845Z,4.57
2022-09-29T08:13:31.146Z,5.97
2022-09-29T08:15:59.830Z,5.27
2022-09-29T08:18:27.963Z,5.50
2022-09-29T08:20:59.941Z,5.80
2022-09-29T08:23:31.759Z,6.07
2022-09-29T08:26:02.679Z,6.60
2022-09-29T08:28:32.414Z,6.40
2022-09-29T08:31:04.421Z,5.90
2022-09-29T08:33:32.609Z,6.07
2022-09-29T08:36:03.656Z,6.40
2022-09-29T08:38:33.095Z,7.60
2022-09-29T08:41:04.751Z,6.73
2022-09-29T08:43:35.875Z,6.67
2022-09-29T08:46:08.630Z,7.10
2022-09-29T08:48:53.419Z,6.57
2022-09-29T08:51:41.841Z,6.73
2022-09-29T08:54:36.586Z,6.53
2022-09-29T08:57:07.657Z,6.93
2022-09-29T08:59:35.254Z,7.67
2022-09-29T09:02:30.367Z,7.83
2022-09-29T09:05:11.119Z,6.97
2022-09-29T09:07:52.590Z,6.90
2022-09-29T09:10:31.636Z,7.30
2022-09-29T09:13:13.686Z,7.57
2022-09-29T09:16:02.981Z,7.47
2022-09-29T09:18:47.602Z,6.60
2022-09-29T09:21:19.158Z,7.13
2022-09-29T09:23:59.906Z,7.83
2022-09-29T09:26:39.214Z,7.10
2022-09-29T09:29:15.409Z,7.97
2022-09-29T09:31:45.574Z,7.40
2022-09-29T09:34:17.813Z,7.23
2022-09-29T09:36:56.315Z,7.90
2022-09-29T09:39:32.485Z,8.10
2022-09-29T09:42:03.864Z,7.23
2022-09-29T09:44:36.999Z,7.57
2022-09-29T09:47:18.453Z,7.20
2022-09-29T09:49:52.170Z,6.73
2022-09-29T09:52:23.950Z,7.13
2022-09-29T09:54:56.020Z,7.23
2022-09-29T09:57:50.045Z,7.87
2022-09-29T10:00:23.415Z,8.02
2022-09-29T10:02:53.231Z,7.38
2022-09-29T10:05:24.041Z,7.90
2022-09-29T10:07:52.597Z,7.38
2022-09-29T10:10:24.179Z,6.47
2022-09-29T10:13:00.118Z,7.40
2022-09-29T10:15:33.470Z,6.60
2022-09-29T10:18:06.723Z,7.30
2022-09-29T10:20:37.461Z,7.25
2022-09-29T10:23:22.243Z,7.13
2022-09-29T10:25:58.449Z,6.60
2022-09-29T10:28:29.599Z,6.30
2022-09-29T10:30:57.286Z,6.00
2022-09-29T10:33:27.275Z,5.87
2022-09-29T10:36:08.462Z,5.88
2022-09-29T10:38:38.100Z,5.78
2022-09-29T10:41:09.947Z,5.95
2022-09-29T10:43:40.426Z,5.90
2022-09-29T10:46:37.236Z,5.68
2022-09-29T10:49:15.104Z,5.85
2022-09-29T10:51:49.111Z,5.47
2022-09-29T10:54:17.691Z,5.50
2022-09-29T10:56:50.291Z,5.80
2022-09-29T10:59:19.812Z,5.20
2022-09-29T11:01:51.457Z,5.55
2022-09-29T11:04:23.319Z,5.68
2022-09-29T11:06:51.935Z,5.45
2022-09-29T11:09:38.543Z,5.60
2022-09-29T11:12:28.231Z,5.70
2022-09-29T11:14:56.092Z,5.40
2022-09-29T11:17:26.362Z,5.70
2022-09-29T11:19:55.968Z,5.30
2022-09-29T11:22:50.655Z,4.95
2022-09-29T11:25:30.262Z,5.10
2022-09-29T11:28:12.876Z,5.25
2022-09-29T11:31:01.142Z,5.00
2022-09-29T11:33:38.480Z,5.70
2022-09-29T11:36:16.571Z,6.13
2022-09-29T11:39:02.982Z,5.90
2022-09-29T11:41:50.197Z,5.85
2022-09-29T11:44:38.628Z,4.85
2022-09-29T11:47:15.800Z,5.13
2022-09-29T11:50:03.694Z,7.35
2022-09-29T11:52:55.506Z,5.40
2022-09-29T11:55:44.062Z,4.78
2022-09-29T11:58:27.583Z,12.18
2022-09-29T12:01:09.885Z,12.57
2022-09-29T12:03:47.070Z,8.10
2022-09-29T12:06:40.805Z,7.18
2022-09-29T12:09:24.479Z,6.40
2022-09-29T12:12:24.769Z,5.32
2022-09-29T12:15:08.901Z,5.97
2022-09-29T12:17:43.494Z,4.50
2022-09-29T12:20:20.606Z,5.10
2022-09-29T12:22:50.856Z,4.95
2022-09-29T12:25:22.306Z,4.85
2022-09-29T12:27:52.837Z,4.03
2022-09-29T12:30:24.737Z,4.30
2022-09-29T12:32:58.706Z,4.72
2022-09-29T12:35:35.044Z,4.75
2022-09-29T12:38:15.457Z,4.68
2022-09-29T12:40:49.238Z,4.97
2022-09-29T12:43:25.034Z,3.78
2022-09-29T12:46:00.982Z,3.70
2022-09-29T12:48:51.309Z,4.03
2022-09-29T12:51:24.019Z,4.00
2022-09-29T12:54:10.027Z,3.60
2022-09-29T12:56:44.479Z,3.53
2022-09-29T12:59:18.863Z,3.70
2022-09-29T13:01:50.123Z,3.47
2022-09-29T13:04:41.048Z,3.65
2022-09-29T13:07:47.271Z,3.53
2022-09-29T13:10:37.994Z,3.70
2022-09-29T13:13:38.844Z,3.70
2022-09-29T13:16:19.719Z,3.28
2022-09-29T13:19:22.865Z,3.90
2022-09-29T13:22:21.847Z,3.38
2022-09-29T13:24:56.754Z,4.05
2022-09-29T13:27:31.173Z,4.60
2022-09-29T13:30:06.346Z,4.22
2022-09-29T13:32:40.904Z,3.88
2022-09-29T13:35:17.213Z,3.72
2022-09-29T13:37:51.412Z,4.65
2022-09-29T13:40:22.966Z,3.90
2022-09-29T13:42:52.675Z,3.42
2022-09-29T13:45:41.396Z,3.60
2022-09-29T13:48:41.434Z,3.50
2022-09-29T13:51:50.001Z,3.40
2022-09-29T13:54:34.518Z,3.60
2022-09-29T13:57:29.429Z,3.90
2022-09-29T14:00:18.690Z,3.83
2022-09-29T14:03:03.247Z,4.72
2022-09-29T14:05:55.268Z,4.10
2022-09-29T14:08:32.597Z,3.88
2022-09-29T14:11:09.001Z,4.20
2022-09-29T14:13:46.498Z,3.63
2022-09-29T14:16:22.948Z,3.95
2022-09-29T14:18:58.029Z,3.63
2022-09-29T14:21:54.918Z,4.22
2022-09-29T14:24:49.549Z,3.55
2022-09-29T14:27:32.352Z,4.15
2022-09-29T14:30:14.223Z,3.88
2022-09-29T14:32:48.043Z,4.05
2022-09-29T14:35:20.619Z,4.80
2022-09-29T14:37:58.995Z,5.07
2022-09-29T14:40:30.047Z,3.97
2022-09-29T14:43:13.703Z,3.80
2022-09-29T14:46:26.514Z,3.97
2022-09-29T14:49:33.127Z,4.57
2022-09-29T14:52:12.496Z,3.80
2022-09-29T14:54:51.625Z,3.53
2022-09-29T14:57:33.010Z,4.03
2022-09-29T15:00:12.673Z,3.33
2022-09-29T15:02:44.513Z,3.33
2022-09-29T15:05:28.627Z,3.40
2022-09-29T15:07:59.741Z,3.30
2022-09-29T15:10:30.551Z,3.28
2022-09-29T15:13:16.077Z,3.20
2022-09-29T15:15:49.146Z,3.40
2022-09-29T15:18:29.981Z,2.88
2022-09-29T15:21:06.353Z,3.05
2022-09-29T15:23:52.174Z,3.28
2022-09-29T15:26:20.595Z,3.90
2022-09-29T15:28:48.322Z,3.50
2022-09-29T15:31:26.891Z,3.53
2022-09-29T15:33:55.471Z,3.80
2022-09-29T15:36:25.422Z,3.60
2022-09-29T15:38:54.213Z,4.20
2022-09-29T15:41:29.009Z,3.92
2022-09-29T15:44:00.400Z,3.75
2022-09-29T15:46:37.725Z,2.58
2022-09-29T15:49:12.854Z,3.15
2022-09-29T15:51:42.026Z,3.05
2022-09-29T15:54:13.366Z,2.65
2022-09-29T15:56:55.811Z,3.17
2022-09-29T15:59:41.486Z,3.55
2022-09-29T16:02:19.509Z,3.43
2022-09-29T16:04:49.755Z,2.65
2022-09-29T16:07:24.411Z,2.40
2022-09-29T16:09:52.627Z,2.37
2022-09-29T16:12:21.628Z,2.33
2022-09-29T16:14:54.754Z,2.27
2022-09-29T16:17:25.007Z,3.00
2022-09-29T16:19:53.162Z,2.00
2022-09-29T16:22:26.868Z,1.97
2022-09-29T16:25:08.409Z,1.90
2022-09-29T16:27:56.134Z,1.70
2022-09-29T16:30:28.970Z,1.47
2022-09-29T16:33:05.571Z,1.90
2022-09-29T16:36:01.825Z,1.40
2022-09-29T16:38:36.641Z,1.80
2022-09-29T16:41:27.594Z,1.77
2022-09-29T16:44:13.490Z,2.13
2022-09-29T16:46:51.789Z,2.17
2022-09-29T16:49:25.742Z,1.87
2022-09-29T16:51:54.814Z,1.80
2022-09-29T16:54:26.568Z,1.73
2022-09-29T16:57:21.526Z,1.50
2022-09-29T16:59:50.530Z,2.17
2022-09-29T17:02:18.817Z,2.97
2022-09-29T17:04:47.765Z,3.93
2022-09-29T17:07:16.628Z,2.87
2022-09-29T17:09:50.063Z,3.93
2022-09-29T17:12:18.425Z,4.63
2022-09-29T17:14:46.621Z,3.40
2022-09-29T17:17:19.738Z,3.23
2022-09-29T17:19:49.457Z,3.40
2022-09-29T17:22:25.044Z,3.37
2022-09-29T17:24:52.670Z,3.00
2022-09-29T17:27:37.629Z,2.50
2022-09-29T17:30:06.084Z,2.97
2022-09-29T17:32:35.932Z,2.70
2022-09-29T17:35:06.875Z,2.77
2022-09-29T17:37:34.759Z,3.00
2022-09-29T17:40:03.636Z,2.70
2022-09-29T17:42:31.211Z,2.20
2022-09-29T17:44:59.359Z,2.87
2022-09-29T17:47:28.823Z,2.63
2022-09-29T17:49:57.387Z,2.03
2022-09-29T17:52:26.349Z,2.23
2022-09-29T17:54:53.913Z,2.30
2022-09-29T17:57:26.326Z,2.60
2022-09-29T17:59:54.396Z,2.23
2022-09-29T18:02:22.970Z,4.17
2022-09-29T18:04:50.581Z,2.00
2022-09-29T18:07:18.208Z,2.10
2022-09-29T18:09:47.648Z,2.80
2022-09-29T18:12:15.296Z,2.87
2022-09-29T18:14:42.954Z,2.00
2022-09-29T18:17:10.821Z,3.10
2022-09-29T18:19:40.068Z,2.00
2022-09-29T18:22:08.299Z,2.10
2022-09-29T18:24:36.242Z,2.10
2022-09-29T18:27:05.284Z,2.10
2022-09-29T18:29:32.920Z,3.67
2022-09-29T18:32:01.015Z,2.20
2022-09-29T18:34:31.071Z,1.83
2022-09-29T18:36:58.819Z,2.00
2022-09-29T18:39:26.402Z,2.05
2022-09-29T18:41:54.268Z,2.25
2022-09-29T18:44:29.927Z,2.50
2022-09-29T18:46:57.997Z,2.80
2022-09-29T18:49:25.862Z,2.75
2022-09-29T18:51:53.485Z,2.17
2022-09-29T18:54:21.290Z,2.50
2022-09-29T18:56:53.805Z,2.50
2022-09-29T18:59:23.797Z,3.00
2022-09-29T19:01:51.498Z,2.83
2022-09-29T19:04:19.216Z,2.80
2022-09-29T19:06:47.139Z,2.40
2022-09-29T19:09:14.817Z,2.63
2022-09-29T19:11:42.528Z,3.90
2022-09-29T19:14:10.158Z,3.53
2022-09-29T19:16:39.303Z,3.03
2022-09-29T19:19:08.424Z,3.00
2022-09-29T19:21:36.390Z,2.90
2022-09-29T19:24:04.171Z,2.83
2022-09-29T19:26:31.879Z,3.10
2022-09-29T19:28:59.603Z,2.80
2022-09-29T19:31:27.428Z,2.70
2022-09-29T19:33:57.462Z,2.37
2022-09-29T19:36:25.380Z,2.47
2022-09-29T19:38:53.128Z,2.10
2022-09-29T19:41:23.929Z,3.60
2022-09-29T19:43:52.011Z,2.10
2022-09-29T19:46:21.269Z,1.63
2022-09-29T19:48:50.457Z,2.10
2022-09-29T19:51:37.575Z,2.40
2022-09-29T19:54:11.489Z,2.47
2022-09-29T19:56:40.445Z,2.90
2022-09-29T19:59:10.456Z,3.50
2022-09-29T20:01:38.713Z,2.60
2022-09-29T20:04:06.589Z,1.92
2022-09-29T20:06:36.541Z,2.30
2022-09-29T20:09:04.631Z,2.50
2022-09-29T20:11:33.931Z,2.00
2022-09-29T20:14:03.171Z,2.00
2022-09-29T20:16:33.358Z,2.15
2022-09-29T20:19:01.258Z,2.20
2022-09-29T20:21:29.257Z,2.70
2022-09-29T20:23:59.216Z,2.92
2022-09-29T20:26:26.797Z,2.55
2022-09-29T20:28:54.968Z,2.38
2022-09-29T20:31:24.051Z,2.15
2022-09-29T20:33:52.422Z,1.98
2022-09-29T20:36:20.287Z,1.83
2022-09-29T20:38:47.984Z,2.00
2022-09-29T20:41:17.002Z,2.20
2022-09-29T20:43:48.890Z,2.38
2022-09-29T20:46:17.119Z,1.95
2022-09-29T20:48:45.240Z,2.22
2022-09-29T20:51:16.107Z,2.13
2022-09-29T20:53:46.341Z,2.38
2022-09-29T20:56:16.509Z,2.25
2022-09-29T20:58:47.010Z,2.10
2022-09-29T21:01:17.941Z,2.10
2022-09-29T21:03:50.074Z,1.98
2022-09-29T21:06:18.042Z,2.13
2022-09-29T21:08:45.614Z,2.50
2022-09-29T21:11:13.346Z,2.20
2022-09-29T21:13:41.311Z,2.20
2022-09-29T21:16:10.202Z,2.20
2022-09-29T21:18:37.742Z,1.80
2022-09-29T21:21:08.173Z,1.65
2022-09-29T21:23:37.133Z,1.73
2022-09-29T21:26:06.351Z,1.80
2022-09-29T21:28:37.931Z,1.90
2022-09-29T21:31:08.398Z,1.70
2022-09-29T21:33:37.896Z,1.77
2022-09-29T21:36:09.580Z,1.58
2022-09-29T21:38:38.784Z,1.57
2022-09-29T21:41:08.357Z,1.73
2022-09-29T21:43:37.896Z,2.00
2022-09-29T21:46:07.601Z,1.70
2022-09-29T21:48:37.632Z,1.58
2022-09-29T21:51:06.469Z,1.30
2022-09-29T21:53:35.557Z,1.90
2022-09-29T21:56:04.380Z,1.65
2022-09-29T21:58:32.219Z,1.60
2022-09-29T22:01:00.522Z,1.50
2022-09-29T22:03:31.311Z,1.55
2022-09-29T22:06:01.014Z,1.50
2022-09-29T22:08:28.911Z,1.30
2022-09-29T22:10:57.475Z,1.45
2022-09-29T22:13:26.708Z,1.50
2022-09-29T22:15:55.505Z,1.40
2022-09-29T22:18:29.725Z,1.58
2022-09-29T22:21:09.001Z,1.30
2022-09-29T22:23:37.100Z,1.20
2022-09-29T22:26:05.203Z,1.65
2022-09-29T22:28:33.014Z,1.70
2022-09-29T22:31:08.676Z,1.60
2022-09-29T22:33:37.657Z,1.65
2022-09-29T22:36:07.175Z,1.50
2022-09-29T22:38:35.957Z,1.38
2022-09-29T22:41:08.507Z,1.40
2022-09-29T22:43:36.257Z,1.70
2022-09-29T22:46:04.047Z,1.73
2022-09-29T22:48:31.673Z,1.70
2022-09-29T22:50:59.218Z,1.73
2022-09-29T22:53:28.169Z,1.40
2022-09-29T22:55:55.731Z,1.20
2022-09-29T22:58:25.220Z,1.42
2022-09-29T23:01:03.414Z,1.30
2022-09-29T23:03:31.217Z,1.50
2022-09-29T23:05:59.503Z,1.40
2022-09-29T23:08:30.306Z,1.60
2022-09-29T23:10:57.842Z,1.45
2022-09-29T23:13:27.590Z,1.60
2022-09-29T23:15:55.208Z,1.40
2022-09-29T23:18:22.746Z,1.50
2022-09-29T23:20:50.521Z,1.50
2022-09-29T23:23:18.054Z,1.40
2022-09-29T23:25:49.572Z,1.40
2022-09-29T23:28:17.105Z,1.40
2022-09-29T23:30:44.650Z,1.30
2022-09-29T23:33:12.157Z,1.30
2022-09-29T23:35:39.693Z,1.30
2022-09-29T23:38:24.762Z,1.37
2022-09-29T23:40:53.725Z,1.30
2022-09-29T23:43:21.732Z,1.33
2022-09-29T23:45:49.333Z,1.20
2022-09-29T23:48:17.156Z,1.30
2022-09-29T23:50:45.422Z,1.20
2022-09-29T23:53:13.454Z,1.20
2022-09-29T23:55:41.162Z,1.40
2022-09-29T23:58:10.044Z,1.58
